< Typhoon 198925 1989 Season Typhoon 198927 >
Typhoon 198926 (DAN)
General InformationTrack Information on Google MapsDetailed Wind InformationList of All Images || Disaster Info.ResourceGoogle EarthGE AnimationAtom FeedGeoJSON
Detalied Best Track (Time Zone = UTC)
Year Month Day Hour Lat. Long. Pressure (hPa) Wind (kt) Class Image
1989 10 8 00 9.0 140.0 1008 0 2 Image
1989 10 8 06 9.0 139.0 1004 0 2 Image
1989 10 8 12 9.5 138.0 1002 0 2 Image
1989 10 8 18 10.0 137.0 1000 0 2 Image
1989 10 9 00 10.5 136.0 996 40 3 Image
1989 10 9 06 11.0 134.0 990 45 3 Image
1989 10 9 12 11.5 132.1 985 50 4 Image
1989 10 9 18 11.8 130.5 980 55 4 Image
1989 10 10 00 12.1 128.5 975 60 4 Image
1989 10 10 06 12.5 126.5 970 65 5 Image
1989 10 10 12 13.2 124.3 975 60 4 Image
1989 10 10 18 13.6 122.2 975 60 4 Image
1989 10 11 00 14.3 120.0 970 65 5 Image
1989 10 11 06 15.1 118.6 970 65 5 Image
1989 10 11 12 16.1 117.0 970 65 5 Image
1989 10 11 18 16.4 115.2 970 65 5 Image
1989 10 12 00 16.5 113.6 965 70 5 Image
1989 10 12 06 16.6 112.3 965 70 5 Image
1989 10 12 12 16.8 111.3 960 75 5 Image
1989 10 12 18 17.4 110.0 960 75 5 Image
1989 10 13 00 17.8 108.6 965 70 5 Image
1989 10 13 06 18.0 107.4 970 65 5 Image
1989 10 13 12 18.3 106.1 975 60 4 Image
1989 10 13 18 18.5 105.0 990 45 3 Image
1989 10 14 00 18.8 103.0 998 0 2 Image
1989 10 14 06 19.0 101.0 1000 0 2 Image
Japan Meteorological Agency Best Track Data | Correction Date : 1992-10-21
< Typhoon 198925 1989 Season Typhoon 198927 >

Help